Time;durP1;ratioP1;P1;durP2;ratioP2;P2;SDS_P1;SDS_P2;PMS_P1;PMS_P2;Temp;Humidity;BMP_temperature;BMP_pressure;BME280_temperature;BME280_humidity;BME280_pressure;Samples;Min_cycle;Max_cycle;Signal;HPM_P1;HPM_P2
2023/01/28 00:01:23;;;;;;;11.07;5.32;;;;;;;;;;5082602;28;20136;-83
2023/01/28 00:03:51;;;;;;;12.90;6.00;;;;;;;;;;5085348;28;20061;-82
2023/01/28 00:06:18;;;;;;;11.70;5.95;;;;;;;;;;5083729;28;20143;-83
2023/01/28 00:08:44;;;;;;;10.63;5.32;;;;;;;;;;5097530;28;20080;-83
2023/01/28 00:11:11;;;;;;;12.02;5.68;;;;;;;;;;5088233;28;20896;-83
2023/01/28 00:13:38;;;;;;;12.07;6.13;;;;;;;;;;5089903;28;20057;-83
2023/01/28 00:16:06;;;;;;;12.68;5.80;;;;;;;;;;5078240;28;20083;-83
2023/01/28 00:18:32;;;;;;;12.32;5.70;;;;;;;;;;5086677;28;20174;-83
2023/01/28 00:21:00;;;;;;;12.57;6.43;;;;;;;;;;5074518;28;20168;-83
2023/01/28 00:23:27;;;;;;;13.55;5.97;;;;;;;;;;5077067;28;20203;-83
2023/01/28 00:25:53;;;;;;;11.70;5.63;;;;;;;;;;5077454;28;20079;-83
2023/01/28 00:28:21;;;;;;;12.60;6.28;;;;;;;;;;5079430;28;21184;-83
2023/01/28 00:30:47;;;;;;;11.63;6.30;;;;;;;;;;5083584;28;20898;-83
2023/01/28 00:33:14;;;;;;;12.60;5.70;;;;;;;;;;5089058;28;20133;-83
2023/01/28 00:35:40;;;;;;;12.18;6.15;;;;;;;;;;5086214;28;20141;-83
2023/01/28 00:38:07;;;;;;;11.85;5.70;;;;;;;;;;5082127;28;20585;-82
2023/01/28 00:40:34;;;;;;;13.50;5.82;;;;;;;;;;5071303;28;20092;-83
2023/01/28 00:43:00;;;;;;;11.90;5.97;;;;;;;;;;5087449;28;20162;-83
2023/01/28 00:45:27;;;;;;;12.98;6.38;;;;;;;;;;5073910;28;20056;-83
2023/01/28 00:47:54;;;;;;;13.38;6.07;;;;;;;;;;5080493;28;20131;-84
2023/01/28 00:50:20;;;;;;;13.73;6.55;;;;;;;;;;5074158;28;20112;-83
2023/01/28 00:52:47;;;;;;;11.95;6.22;;;;;;;;;;5067778;28;20139;-82
2023/01/28 00:55:13;;;;;;;11.23;5.15;;;;;;;;;;5072525;28;20531;-82
2023/01/28 00:57:41;;;;;;;10.70;5.38;;;;;;;;;;5085989;28;20111;-83
2023/01/28 01:00:07;;;;;;;12.20;5.93;;;;;;;;;;5073777;28;20530;-82
2023/01/28 01:02:34;;;;;;;11.65;5.78;;;;;;;;;;5088589;28;20048;-83
2023/01/28 01:05:01;;;;;;;12.32;6.25;;;;;;;;;;5085845;28;20585;-82
2023/01/28 01:07:33;;;;;;;12.73;6.10;;;;;;;;;;5079613;28;20052;-83
2023/01/28 01:10:00;;;;;;;12.05;6.00;;;;;;;;;;5100908;27;20084;-82
2023/01/28 01:12:27;;;;;;;10.93;6.38;;;;;;;;;;5076585;28;20064;-83
2023/01/28 01:14:55;;;;;;;11.50;6.22;;;;;;;;;;5087080;28;20491;-83
2023/01/28 01:17:21;;;;;;;10.70;5.97;;;;;;;;;;5073703;28;20135;-82
2023/01/28 01:19:48;;;;;;;13.68;5.57;;;;;;;;;;5082897;28;20055;-82
2023/01/28 01:22:14;;;;;;;10.80;5.65;;;;;;;;;;5078225;28;20588;-82
2023/01/28 01:24:41;;;;;;;11.25;5.60;;;;;;;;;;5080900;28;20093;-82
2023/01/28 01:27:07;;;;;;;10.60;5.93;;;;;;;;;;5084708;28;20503;-81
2023/01/28 01:29:33;;;;;;;12.55;6.07;;;;;;;;;;5079527;28;20056;-82
2023/01/28 01:32:00;;;;;;;9.90;5.78;;;;;;;;;;5080885;28;20106;-82
2023/01/28 01:34:26;;;;;;;11.68;5.90;;;;;;;;;;5083797;28;20050;-83
2023/01/28 01:36:53;;;;;;;12.65;6.43;;;;;;;;;;5079577;28;20048;-82
2023/01/28 01:39:19;;;;;;;12.15;5.93;;;;;;;;;;5088237;28;20133;-82
2023/01/28 01:41:46;;;;;;;12.68;5.93;;;;;;;;;;5075616;28;20072;-82
2023/01/28 01:44:30;;;;;;;11.13;5.82;;;;;;;;;;5084079;28;20206;-82
2023/01/28 01:46:57;;;;;;;12.93;6.10;;;;;;;;;;5084593;28;20453;-82
2023/01/28 01:49:25;;;;;;;12.50;6.13;;;;;;;;;;5088955;28;20084;-82
2023/01/28 01:51:54;;;;;;;13.27;6.55;;;;;;;;;;5070791;28;20056;-82
2023/01/28 01:54:22;;;;;;;13.55;6.38;;;;;;;;;;5073877;28;20139;-82
2023/01/28 01:56:49;;;;;;;13.05;6.20;;;;;;;;;;5076399;28;20055;-82
2023/01/28 01:59:19;;;;;;;11.77;6.22;;;;;;;;;;5073040;28;20056;-82
2023/01/28 02:01:46;;;;;;;13.13;6.60;;;;;;;;;;5084525;28;20049;-82
2023/01/28 02:04:19;;;;;;;12.50;6.25;;;;;;;;;;5077784;28;20057;-83
2023/01/28 02:06:46;;;;;;;13.48;7.03;;;;;;;;;;5083218;28;20148;-82
2023/01/28 02:09:23;;;;;;;12.95;6.60;;;;;;;;;;5071403;28;20045;-83
2023/01/28 02:11:51;;;;;;;12.07;6.35;;;;;;;;;;5077858;28;20064;-83
2023/01/28 02:14:17;;;;;;;12.48;6.40;;;;;;;;;;5081215;28;20052;-82
2023/01/28 02:16:56;;;;;;;12.00;6.13;;;;;;;;;;5087468;28;20062;-82
2023/01/28 02:19:25;;;;;;;15.32;7.13;;;;;;;;;;5069958;28;20106;-82
2023/01/28 02:22:10;;;;;;;14.55;6.28;;;;;;;;;;5079080;28;20523;-83
2023/01/28 02:24:52;;;;;;;13.15;7.30;;;;;;;;;;5075159;28;20499;-81
2023/01/28 02:27:37;;;;;;;12.20;5.97;;;;;;;;;;5073116;28;20084;-81
2023/01/28 02:30:13;;;;;;;12.23;6.30;;;;;;;;;;5080355;28;20044;-83
2023/01/28 02:32:47;;;;;;;14.00;6.45;;;;;;;;;;5069535;28;20131;-83
2023/01/28 02:35:19;;;;;;;14.40;6.57;;;;;;;;;;5085604;28;20056;-83
2023/01/28 02:37:50;;;;;;;13.27;6.70;;;;;;;;;;5082793;28;20095;-82
2023/01/28 02:40:28;;;;;;;12.70;5.95;;;;;;;;;;5087814;28;20579;-82
2023/01/28 02:42:55;;;;;;;12.50;6.28;;;;;;;;;;5071021;28;20049;-82
2023/01/28 02:48:20;;;;;;;12.85;6.47;;;;;;;;;;5049672;28;20530;-83
2023/01/28 02:50:56;;;;;;;14.07;6.70;;;;;;;;;;5081268;28;20127;-82
2023/01/28 02:53:45;;;;;;;14.65;6.68;;;;;;;;;;5087183;28;20053;-83
2023/01/28 02:56:15;;;;;;;13.05;6.75;;;;;;;;;;5063062;28;20049;-82
2023/01/28 02:58:55;;;;;;;12.63;6.05;;;;;;;;;;5086835;28;20053;-83
2023/01/28 03:01:21;;;;;;;13.43;6.68;;;;;;;;;;5073817;28;20056;-82
2023/01/28 03:04:00;;;;;;;14.75;6.78;;;;;;;;;;5083606;28;20052;-83
2023/01/28 03:06:33;;;;;;;12.32;5.72;;;;;;;;;;5078851;28;20071;-82
2023/01/28 03:36:59;;;;;;;12.65;5.60;;;;;;;;;;5086237;28;20195;-82
2023/01/28 03:39:28;;;;;;;12.27;5.53;;;;;;;;;;5079268;28;20055;-83
2023/01/28 03:41:58;;;;;;;11.68;5.68;;;;;;;;;;5086262;28;20471;-81
2023/01/28 03:47:10;;;;;;;12.40;5.80;;;;;;;;;;5086096;28;20427;-83
2023/01/28 03:49:50;;;;;;;12.88;5.68;;;;;;;;;;5081602;28;20059;-81
2023/01/28 03:52:18;;;;;;;12.45;6.20;;;;;;;;;;5069183;28;20138;-83
2023/01/28 03:54:47;;;;;;;10.95;5.28;;;;;;;;;;5083850;28;20148;-83
2023/01/28 03:57:17;;;;;;;12.70;6.13;;;;;;;;;;5069135;28;20064;-82
2023/01/28 03:59:43;;;;;;;13.13;5.97;;;;;;;;;;5073262;28;20053;-81
2023/01/28 04:02:10;;;;;;;14.15;6.38;;;;;;;;;;5078257;28;20053;-82
2023/01/28 04:04:40;;;;;;;11.88;6.07;;;;;;;;;;5079718;28;20064;-82
2023/01/28 04:07:09;;;;;;;11.52;5.82;;;;;;;;;;5079898;28;20258;-82
2023/01/28 04:09:36;;;;;;;12.73;6.30;;;;;;;;;;5071617;28;20053;-82
2023/01/28 04:12:03;;;;;;;11.45;5.78;;;;;;;;;;5081184;28;20593;-82
2023/01/28 04:14:30;;;;;;;14.40;6.15;;;;;;;;;;5079298;28;20777;-83
2023/01/28 04:16:56;;;;;;;12.18;5.78;;;;;;;;;;5089558;28;20056;-82
2023/01/28 04:19:23;;;;;;;11.90;6.03;;;;;;;;;;5082921;28;20063;-82
2023/01/28 04:21:52;;;;;;;13.18;6.50;;;;;;;;;;5080521;28;20056;-83
2023/01/28 04:24:19;;;;;;;14.45;5.75;;;;;;;;;;5086476;28;20061;-82
2023/01/28 04:26:45;;;;;;;14.43;6.22;;;;;;;;;;5087434;28;20140;-82
2023/01/28 04:29:12;;;;;;;13.18;6.65;;;;;;;;;;5086024;28;20350;-82
2023/01/28 04:31:38;;;;;;;12.25;6.10;;;;;;;;;;5082148;28;20053;-83
2023/01/28 04:34:05;;;;;;;12.63;6.38;;;;;;;;;;5074416;28;20056;-83
2023/01/28 04:36:31;;;;;;;13.55;6.50;;;;;;;;;;5071030;28;20088;-82
2023/01/28 04:38:57;;;;;;;11.98;6.03;;;;;;;;;;5082340;28;20525;-82
2023/01/28 04:41:24;;;;;;;13.48;6.63;;;;;;;;;;5074343;28;20151;-81
2023/01/28 04:43:50;;;;;;;12.88;6.03;;;;;;;;;;5082399;28;20060;-83
2023/01/28 04:46:16;;;;;;;12.63;6.10;;;;;;;;;;5077186;28;20066;-82
2023/01/28 04:48:43;;;;;;;11.95;6.28;;;;;;;;;;5109193;27;20048;-81
2023/01/28 04:51:09;;;;;;;12.15;5.97;;;;;;;;;;5100369;28;20072;-82
2023/01/28 04:53:35;;;;;;;11.15;5.78;;;;;;;;;;5085018;28;20091;-82
2023/01/28 04:56:02;;;;;;;11.40;5.93;;;;;;;;;;5074725;28;20062;-83
2023/01/28 04:58:28;;;;;;;11.07;5.80;;;;;;;;;;5086570;28;20087;-83
2023/01/28 05:00:55;;;;;;;11.85;5.53;;;;;;;;;;5080120;28;20092;-82
2023/01/28 05:03:22;;;;;;;11.68;5.63;;;;;;;;;;5068364;28;20170;-82
2023/01/28 05:05:48;;;;;;;11.60;6.07;;;;;;;;;;5078407;28;20059;-83
2023/01/28 05:08:15;;;;;;;11.70;6.32;;;;;;;;;;5085269;28;20541;-81
2023/01/28 05:10:41;;;;;;;12.13;6.13;;;;;;;;;;5073105;28;20152;-83
2023/01/28 05:13:08;;;;;;;11.30;5.97;;;;;;;;;;5077456;28;20045;-82
2023/01/28 05:15:34;;;;;;;11.60;5.68;;;;;;;;;;5074924;28;20057;-83
2023/01/28 05:18:01;;;;;;;12.50;5.68;;;;;;;;;;5069632;28;20571;-82
2023/01/28 05:20:27;;;;;;;11.40;5.75;;;;;;;;;;5088600;28;20140;-82
2023/01/28 05:22:54;;;;;;;11.93;5.82;;;;;;;;;;5087911;28;20570;-83
2023/01/28 05:25:20;;;;;;;11.43;5.40;;;;;;;;;;5083918;28;20514;-82
2023/01/28 05:27:50;;;;;;;11.93;5.95;;;;;;;;;;5086435;28;20430;-83
2023/01/28 05:30:17;;;;;;;11.18;5.65;;;;;;;;;;5082479;28;20068;-82
2023/01/28 05:32:43;;;;;;;13.50;6.18;;;;;;;;;;5076778;28;20052;-83
2023/01/28 05:35:10;;;;;;;12.35;6.13;;;;;;;;;;5073897;28;20060;-83
2023/01/28 05:37:36;;;;;;;10.93;5.78;;;;;;;;;;5077720;28;20049;-83
2023/01/28 05:40:03;;;;;;;11.13;5.32;;;;;;;;;;5079388;28;20053;-82
2023/01/28 05:42:30;;;;;;;12.30;5.88;;;;;;;;;;5075594;28;20056;-82
2023/01/28 05:44:56;;;;;;;12.82;5.80;;;;;;;;;;5076410;28;20084;-85
2023/01/28 05:47:22;;;;;;;11.30;5.82;;;;;;;;;;5073530;28;20057;-85
2023/01/28 05:49:49;;;;;;;12.55;5.65;;;;;;;;;;5099621;27;20052;-85
2023/01/28 05:52:15;;;;;;;11.35;5.57;;;;;;;;;;5080758;28;20457;-84
2023/01/28 05:54:41;;;;;;;11.90;5.38;;;;;;;;;;5078426;28;20052;-84
2023/01/28 05:57:08;;;;;;;12.57;5.78;;;;;;;;;;5082669;28;20049;-84
2023/01/28 05:59:34;;;;;;;11.98;5.25;;;;;;;;;;5072668;28;20049;-85
2023/01/28 06:02:00;;;;;;;11.60;5.88;;;;;;;;;;5071339;28;20061;-85
2023/01/28 06:04:27;;;;;;;12.65;5.68;;;;;;;;;;5085532;28;20057;-85
2023/01/28 06:06:53;;;;;;;12.13;5.55;;;;;;;;;;5073552;28;20051;-85
2023/01/28 06:09:20;;;;;;;11.43;5.88;;;;;;;;;;5070410;28;20057;-85
2023/01/28 06:11:46;;;;;;;13.02;6.03;;;;;;;;;;5072905;28;20060;-85
2023/01/28 06:14:12;;;;;;;12.52;5.70;;;;;;;;;;5097876;27;20342;-85
2023/01/28 06:16:39;;;;;;;12.10;5.30;;;;;;;;;;5086008;28;20055;-84
2023/01/28 06:19:05;;;;;;;11.93;5.70;;;;;;;;;;5079031;28;20556;-85
2023/01/28 06:21:32;;;;;;;11.50;5.53;;;;;;;;;;5089487;28;20572;-85
2023/01/28 06:23:58;;;;;;;12.23;6.20;;;;;;;;;;5070492;28;20085;-85
2023/01/28 06:26:25;;;;;;;11.60;5.65;;;;;;;;;;5079368;27;20315;-85
2023/01/28 06:28:51;;;;;;;13.07;5.78;;;;;;;;;;5086797;28;20048;-85
2023/01/28 06:31:18;;;;;;;11.48;5.28;;;;;;;;;;5085116;28;20052;-84
2023/01/28 06:33:45;;;;;;;13.82;6.22;;;;;;;;;;5083455;28;20048;-85
2023/01/28 06:36:12;;;;;;;14.13;6.72;;;;;;;;;;5077672;28;20059;-84
2023/01/28 06:38:38;;;;;;;12.88;6.22;;;;;;;;;;5084098;28;20059;-82
2023/01/28 06:41:04;;;;;;;11.65;5.47;;;;;;;;;;5084848;28;20057;-82
2023/01/28 06:43:31;;;;;;;13.18;5.72;;;;;;;;;;5075763;28;20832;-82
2023/01/28 06:45:57;;;;;;;10.55;5.18;;;;;;;;;;5080422;28;20427;-82
2023/01/28 06:48:24;;;;;;;14.02;6.63;;;;;;;;;;5086270;28;20076;-82
2023/01/28 06:50:51;;;;;;;11.68;5.28;;;;;;;;;;5078123;28;20585;-81
2023/01/28 06:53:17;;;;;;;11.52;4.88;;;;;;;;;;5071732;28;20052;-82
2023/01/28 06:55:44;;;;;;;12.07;5.57;;;;;;;;;;5076551;28;20188;-85
2023/01/28 06:58:10;;;;;;;12.88;5.80;;;;;;;;;;5085910;28;20072;-85
2023/01/28 07:00:37;;;;;;;12.23;5.72;;;;;;;;;;5086594;28;20113;-85
2023/01/28 07:03:03;;;;;;;12.55;5.65;;;;;;;;;;5077794;28;20059;-83
2023/01/28 07:05:30;;;;;;;12.80;5.82;;;;;;;;;;5081965;28;20088;-84
2023/01/28 07:07:56;;;;;;;11.23;5.72;;;;;;;;;;5069761;28;20060;-84
2023/01/28 07:10:22;;;;;;;13.75;6.32;;;;;;;;;;5078484;28;20629;-85
2023/01/28 07:12:49;;;;;;;14.18;6.32;;;;;;;;;;5082930;28;20060;-85
2023/01/28 07:15:15;;;;;;;13.57;6.50;;;;;;;;;;5077195;28;20056;-84
2023/01/28 07:17:41;;;;;;;12.82;5.55;;;;;;;;;;5069069;28;20087;-85
2023/01/28 07:20:10;;;;;;;14.07;6.03;;;;;;;;;;5086163;28;20512;-84
2023/01/28 07:22:38;;;;;;;12.18;5.97;;;;;;;;;;5079861;28;20195;-84
2023/01/28 07:25:05;;;;;;;12.68;6.30;;;;;;;;;;5074081;28;20099;-84
2023/01/28 07:27:32;;;;;;;11.85;5.65;;;;;;;;;;5073278;28;20470;-84
2023/01/28 07:29:58;;;;;;;12.57;6.03;;;;;;;;;;5086092;28;20434;-85
2023/01/28 07:32:26;;;;;;;15.30;6.70;;;;;;;;;;5068380;28;20049;-84
2023/01/28 07:34:52;;;;;;;13.05;6.18;;;;;;;;;;5082482;28;20048;-84
2023/01/28 07:37:21;;;;;;;13.23;5.50;;;;;;;;;;5068920;28;20059;-84
2023/01/28 07:39:48;;;;;;;14.75;6.40;;;;;;;;;;5083184;28;20503;-84
2023/01/28 07:42:14;;;;;;;12.98;5.78;;;;;;;;;;5082996;28;20054;-85
2023/01/28 07:44:41;;;;;;;13.57;6.10;;;;;;;;;;5083307;28;20511;-85
2023/01/28 07:47:07;;;;;;;16.00;7.25;;;;;;;;;;5083498;28;20052;-84
2023/01/28 07:49:33;;;;;;;15.77;5.80;;;;;;;;;;5085022;28;20517;-85
2023/01/28 07:52:00;;;;;;;13.13;6.05;;;;;;;;;;5069935;28;20055;-84
2023/01/28 07:54:26;;;;;;;11.82;5.63;;;;;;;;;;5073677;28;20052;-84
2023/01/28 07:56:53;;;;;;;14.02;6.28;;;;;;;;;;5084690;28;20052;-84
2023/01/28 07:59:19;;;;;;;15.35;6.00;;;;;;;;;;5086836;28;20060;-84
2023/01/28 08:01:45;;;;;;;11.95;6.38;;;;;;;;;;5075401;28;20057;-84
2023/01/28 08:04:12;;;;;;;13.98;6.28;;;;;;;;;;5077667;28;20048;-84
2023/01/28 08:06:38;;;;;;;13.88;6.60;;;;;;;;;;5079574;28;20052;-83
2023/01/28 08:09:07;;;;;;;13.23;5.90;;;;;;;;;;5073063;28;20602;-84
2023/01/28 08:11:34;;;;;;;13.70;6.22;;;;;;;;;;5072981;28;20083;-85
2023/01/28 08:14:00;;;;;;;14.77;6.63;;;;;;;;;;5108186;27;20537;-85
2023/01/28 08:16:28;;;;;;;13.98;6.13;;;;;;;;;;5086165;28;20057;-85
2023/01/28 08:18:54;;;;;;;14.30;6.10;;;;;;;;;;5078995;28;20056;-84
2023/01/28 08:21:20;;;;;;;15.23;6.68;;;;;;;;;;5076710;28;20057;-84
2023/01/28 08:23:47;;;;;;;15.57;6.95;;;;;;;;;;5080301;28;20066;-88
2023/01/28 08:26:14;;;;;;;14.45;6.30;;;;;;;;;;5072076;28;20088;-84
2023/01/28 08:28:43;;;;;;;16.95;6.78;;;;;;;;;;5081093;28;20064;-85
2023/01/28 08:31:09;;;;;;;13.15;6.28;;;;;;;;;;5089087;28;20052;-85
2023/01/28 08:33:36;;;;;;;15.32;6.30;;;;;;;;;;5084778;28;20057;-85
2023/01/28 08:36:03;;;;;;;14.95;6.72;;;;;;;;;;5074306;28;20482;-85
2023/01/28 08:38:29;;;;;;;14.52;6.40;;;;;;;;;;5074534;28;20076;-85
2023/01/28 08:40:56;;;;;;;15.00;6.85;;;;;;;;;;5082858;28;20148;-85
2023/01/28 08:43:23;;;;;;;12.80;5.90;;;;;;;;;;5078627;28;20355;-84
2023/01/28 08:45:49;;;;;;;14.38;6.55;;;;;;;;;;5083513;28;20110;-84
2023/01/28 08:48:17;;;;;;;12.35;6.03;;;;;;;;;;5081179;28;20053;-85
2023/01/28 08:50:44;;;;;;;14.20;6.75;;;;;;;;;;5078728;28;20048;-85
2023/01/28 08:53:14;;;;;;;13.00;6.45;;;;;;;;;;5073898;28;20048;-85
2023/01/28 08:55:41;;;;;;;12.80;6.13;;;;;;;;;;5085652;28;20111;-84
2023/01/28 08:58:09;;;;;;;15.95;6.53;;;;;;;;;;5081908;28;20048;-85
2023/01/28 09:00:36;;;;;;;14.57;6.90;;;;;;;;;;5095365;28;20110;-84
2023/01/28 09:03:03;;;;;;;13.52;6.50;;;;;;;;;;5084256;28;20075;-84
2023/01/28 09:05:32;;;;;;;13.90;6.53;;;;;;;;;;5082971;28;20047;-85
2023/01/28 09:08:03;;;;;;;13.70;6.90;;;;;;;;;;5093185;28;20118;-85
2023/01/28 09:10:32;;;;;;;14.40;6.57;;;;;;;;;;5088987;28;20148;-84
2023/01/28 09:12:58;;;;;;;15.15;6.80;;;;;;;;;;5080328;28;20055;-83
2023/01/28 09:15:24;;;;;;;14.73;6.25;;;;;;;;;;5090783;28;20045;-84
2023/01/28 09:17:56;;;;;;;13.27;6.32;;;;;;;;;;5098295;28;20041;-84
2023/01/28 09:20:22;;;;;;;12.73;5.95;;;;;;;;;;5080350;28;20049;-85
2023/01/28 09:22:48;;;;;;;14.07;6.47;;;;;;;;;;5087025;28;20060;-84
2023/01/28 09:25:15;;;;;;;15.48;6.70;;;;;;;;;;5082335;28;20059;-83
2023/01/28 09:27:41;;;;;;;16.77;6.70;;;;;;;;;;5083233;28;20055;-84
2023/01/28 09:30:09;;;;;;;15.27;6.72;;;;;;;;;;5082728;28;20056;-83
2023/01/28 09:32:35;;;;;;;13.27;6.63;;;;;;;;;;5095727;28;20147;-84
2023/01/28 09:35:02;;;;;;;13.32;6.20;;;;;;;;;;5094023;28;20060;-85
2023/01/28 09:37:28;;;;;;;14.43;6.32;;;;;;;;;;5088057;28;20053;-84
2023/01/28 09:39:55;;;;;;;11.55;5.80;;;;;;;;;;5079672;28;20139;-84
2023/01/28 09:42:34;;;;;;;13.13;6.43;;;;;;;;;;5120182;27;20064;-84
2023/01/28 09:45:30;;;;;;;16.00;6.30;;;;;;;;;;5082222;28;20523;-84
2023/01/28 09:47:58;;;;;;;14.40;6.80;;;;;;;;;;5068260;28;20556;-84
2023/01/28 09:50:32;;;;;;;12.73;5.80;;;;;;;;;;5087795;28;20056;-84
2023/01/28 09:53:04;;;;;;;14.15;6.40;;;;;;;;;;5087358;28;20058;-85
2023/01/28 09:55:54;;;;;;;14.55;6.18;;;;;;;;;;5080392;28;20080;-85
2023/01/28 09:58:21;;;;;;;14.65;6.75;;;;;;;;;;5065636;28;20080;-85
2023/01/28 10:00:57;;;;;;;12.60;5.88;;;;;;;;;;5090565;28;20053;-84
2023/01/28 10:03:40;;;;;;;14.27;5.80;;;;;;;;;;5108865;27;20158;-84
2023/01/28 10:06:14;;;;;;;12.30;5.70;;;;;;;;;;5089196;28;20067;-85
2023/01/28 10:08:45;;;;;;;12.80;5.65;;;;;;;;;;5107310;27;20060;-84
2023/01/28 10:11:15;;;;;;;12.80;6.18;;;;;;;;;;5090586;28;20092;-84
2023/01/28 10:13:44;;;;;;;12.35;5.95;;;;;;;;;;5100371;28;20063;-84
2023/01/28 10:16:26;;;;;;;13.50;5.82;;;;;;;;;;5086119;28;20060;-84
2023/01/28 10:18:55;;;;;;;10.70;5.00;;;;;;;;;;5078541;28;20048;-84
2023/01/28 10:21:42;;;;;;;12.07;5.50;;;;;;;;;;5078107;28;20869;-84
2023/01/28 10:24:21;;;;;;;12.45;4.93;;;;;;;;;;5083402;28;20052;-84
2023/01/28 10:26:50;;;;;;;11.50;5.18;;;;;;;;;;5077306;28;20515;-84
2023/01/28 10:29:22;;;;;;;10.73;5.72;;;;;;;;;;5072838;28;20148;-84
2023/01/28 10:31:53;;;;;;;10.82;4.70;;;;;;;;;;5082262;27;20223;-84
2023/01/28 10:34:20;;;;;;;10.18;4.72;;;;;;;;;;5086756;28;20147;-84
2023/01/28 10:36:47;;;;;;;9.02;4.47;;;;;;;;;;5088393;28;20056;-84
2023/01/28 10:39:19;;;;;;;10.15;4.32;;;;;;;;;;5107979;27;20053;-84
2023/01/28 10:41:45;;;;;;;11.68;4.60;;;;;;;;;;5086890;28;20060;-84
2023/01/28 10:44:30;;;;;;;10.07;4.68;;;;;;;;;;5088545;28;20055;-84
2023/01/28 10:46:58;;;;;;;10.93;4.82;;;;;;;;;;5071045;28;20141;-84
2023/01/28 10:49:29;;;;;;;10.00;4.25;;;;;;;;;;5076888;28;20057;-84
2023/01/28 10:51:57;;;;;;;9.45;4.43;;;;;;;;;;5074229;28;20131;-84
2023/01/28 10:54:24;;;;;;;8.85;4.05;;;;;;;;;;5081522;28;20138;-84
2023/01/28 10:57:01;;;;;;;9.35;4.15;;;;;;;;;;5086210;28;20080;-85
2023/01/28 10:59:28;;;;;;;10.32;4.78;;;;;;;;;;5084833;28;20057;-84
2023/01/28 11:02:03;;;;;;;8.50;3.88;;;;;;;;;;5071747;28;20091;-84
2023/01/28 11:04:31;;;;;;;9.00;4.53;;;;;;;;;;5078138;28;20537;-85
2023/01/28 11:07:03;;;;;;;8.48;3.50;;;;;;;;;;5083087;28;20084;-84
2023/01/28 11:09:31;;;;;;;7.40;3.58;;;;;;;;;;5072392;28;20048;-85
2023/01/28 11:11:58;;;;;;;9.40;3.65;;;;;;;;;;5069251;28;20107;-85
2023/01/28 11:14:25;;;;;;;14.93;3.80;;;;;;;;;;5077517;28;20082;-85
2023/01/28 11:16:53;;;;;;;10.30;3.60;;;;;;;;;;5081738;28;20110;-85
2023/01/28 11:19:21;;;;;;;7.03;3.55;;;;;;;;;;5076001;28;20148;-87
2023/01/28 11:21:50;;;;;;;9.95;3.90;;;;;;;;;;5081188;28;20056;-85
2023/01/28 11:24:21;;;;;;;12.63;4.65;;;;;;;;;;5084866;28;20515;-87
2023/01/28 11:26:49;;;;;;;9.88;3.90;;;;;;;;;;5069810;28;20147;-87
2023/01/28 11:29:22;;;;;;;6.97;3.42;;;;;;;;;;5077264;28;20500;-87
2023/01/28 11:31:49;;;;;;;9.68;4.60;;;;;;;;;;5074836;28;20147;-87
2023/01/28 11:34:16;;;;;;;10.25;4.35;;;;;;;;;;5083408;28;20040;-87
2023/01/28 11:36:53;;;;;;;6.80;2.90;;;;;;;;;;5083213;28;20057;-87
2023/01/28 11:39:27;;;;;;;9.55;3.58;;;;;;;;;;5083938;28;20056;-87
2023/01/28 11:41:54;;;;;;;7.18;3.40;;;;;;;;;;5079148;28;20048;-87
2023/01/28 11:44:25;;;;;;;16.55;3.75;;;;;;;;;;5080266;28;20520;-87
2023/01/28 11:47:09;;;;;;;7.72;3.60;;;;;;;;;;5081421;28;20049;-87
2023/01/28 11:49:51;;;;;;;7.00;3.63;;;;;;;;;;5075695;28;20056;-87
2023/01/28 11:52:23;;;;;;;7.45;3.38;;;;;;;;;;5083016;28;20084;-87
2023/01/28 11:54:56;;;;;;;7.38;3.30;;;;;;;;;;5070477;28;20558;-87
2023/01/28 11:57:36;;;;;;;7.45;3.83;;;;;;;;;;5072365;28;20111;-88
2023/01/28 12:00:05;;;;;;;7.38;3.17;;;;;;;;;;5078726;28;20175;-89
2023/01/28 12:02:38;;;;;;;8.20;3.38;;;;;;;;;;5090081;28;20049;-87
2023/01/28 12:05:10;;;;;;;10.18;3.92;;;;;;;;;;5083431;28;20505;-86
2023/01/28 12:07:55;;;;;;;7.30;3.47;;;;;;;;;;5069628;28;20037;-87
2023/01/28 12:10:23;;;;;;;6.90;2.95;;;;;;;;;;5078448;28;20530;-87
2023/01/28 12:12:56;;;;;;;8.23;3.47;;;;;;;;;;5089642;28;20526;-87
2023/01/28 12:15:37;;;;;;;8.63;3.60;;;;;;;;;;5072198;28;20539;-87
2023/01/28 12:18:14;;;;;;;8.50;3.88;;;;;;;;;;5089699;28;20067;-87
2023/01/28 12:20:41;;;;;;;9.32;3.78;;;;;;;;;;5072598;27;20060;-87
2023/01/28 12:23:10;;;;;;;7.70;3.35;;;;;;;;;;5069099;28;20512;-87
2023/01/28 12:25:55;;;;;;;8.02;3.42;;;;;;;;;;5068858;28;20496;-87
2023/01/28 12:28:29;;;;;;;9.00;3.45;;;;;;;;;;5084037;28;20092;-87
2023/01/28 12:30:58;;;;;;;8.10;3.47;;;;;;;;;;5080156;28;20052;-87
2023/01/28 12:33:38;;;;;;;8.27;3.67;;;;;;;;;;5085396;28;20057;-87
2023/01/28 12:36:31;;;;;;;6.95;3.30;;;;;;;;;;5091827;28;20113;-87
2023/01/28 12:39:10;;;;;;;8.20;3.67;;;;;;;;;;5044192;28;20076;-87
2023/01/28 12:41:41;;;;;;;7.35;3.60;;;;;;;;;;5076167;28;20064;-87
2023/01/28 12:44:28;;;;;;;8.80;3.30;;;;;;;;;;5074909;28;20088;-87
2023/01/28 12:46:58;;;;;;;8.23;3.38;;;;;;;;;;5079795;28;20061;-87
2023/01/28 12:49:28;;;;;;;10.45;3.40;;;;;;;;;;5088118;28;20056;-87
2023/01/28 12:52:09;;;;;;;6.97;3.40;;;;;;;;;;5073665;28;20067;-87
2023/01/28 12:54:49;;;;;;;9.98;2.85;;;;;;;;;;5079831;28;20151;-87
2023/01/28 12:57:20;;;;;;;7.07;3.25;;;;;;;;;;5078189;28;20049;-87
2023/01/28 13:00:01;;;;;;;8.00;3.28;;;;;;;;;;5073810;27;20053;-87
2023/01/28 13:02:33;;;;;;;9.18;3.10;;;;;;;;;;5076626;28;20052;-87
2023/01/28 13:05:07;;;;;;;7.82;3.15;;;;;;;;;;5080070;28;20084;-87
2023/01/28 13:07:45;;;;;;;6.72;3.20;;;;;;;;;;5085990;27;20060;-88
2023/01/28 13:10:23;;;;;;;9.55;3.35;;;;;;;;;;5074314;28;20060;-87
2023/01/28 13:12:50;;;;;;;6.72;3.05;;;;;;;;;;5075294;28;20491;-87
2023/01/28 13:15:17;;;;;;;8.23;3.63;;;;;;;;;;5078755;28;20814;-87
2023/01/28 13:17:54;;;;;;;7.20;3.13;;;;;;;;;;5083163;28;20126;-87
2023/01/28 13:20:39;;;;;;;6.80;3.30;;;;;;;;;;5072420;28;20522;-87
2023/01/28 13:23:21;;;;;;;8.05;3.38;;;;;;;;;;5077264;28;20538;-87
2023/01/28 13:25:49;;;;;;;8.05;4.00;;;;;;;;;;5077641;28;20063;-87
2023/01/28 13:28:30;;;;;;;8.05;3.40;;;;;;;;;;5090503;28;20593;-87
2023/01/28 13:31:07;;;;;;;9.07;3.47;;;;;;;;;;5078316;28;20435;-88
2023/01/28 13:33:38;;;;;;;7.38;3.78;;;;;;;;;;5078138;28;20943;-87
2023/01/28 13:36:17;;;;;;;7.32;3.45;;;;;;;;;;5084197;28;20449;-88
2023/01/28 13:38:44;;;;;;;10.43;3.67;;;;;;;;;;5080747;28;20128;-87
2023/01/28 13:41:12;;;;;;;8.43;3.72;;;;;;;;;;5087037;27;20136;-87
2023/01/28 13:43:57;;;;;;;9.15;3.60;;;;;;;;;;5067258;28;20208;-87
2023/01/28 13:46:29;;;;;;;10.15;4.32;;;;;;;;;;5081292;28;20635;-87
2023/01/28 13:48:58;;;;;;;8.30;3.30;;;;;;;;;;5086903;28;20401;-87
2023/01/28 13:51:29;;;;;;;7.95;3.72;;;;;;;;;;5077909;28;20503;-87
2023/01/28 13:53:58;;;;;;;7.10;3.00;;;;;;;;;;5082182;28;20049;-88
2023/01/28 13:56:29;;;;;;;8.38;3.65;;;;;;;;;;5077268;28;20064;-88
2023/01/28 13:58:59;;;;;;;8.45;3.42;;;;;;;;;;5080689;28;20853;-88
2023/01/28 14:01:29;;;;;;;6.95;3.35;;;;;;;;;;5078350;28;20503;-88
2023/01/28 14:03:56;;;;;;;8.73;3.45;;;;;;;;;;5077958;28;20111;-88
2023/01/28 14:06:23;;;;;;;7.18;3.28;;;;;;;;;;5076603;28;22131;-87
2023/01/28 14:08:52;;;;;;;7.28;3.40;;;;;;;;;;5078024;28;20063;-87
2023/01/28 14:11:21;;;;;;;7.63;3.40;;;;;;;;;;5086490;28;20508;-87
2023/01/28 14:14:06;;;;;;;10.27;4.03;;;;;;;;;;5086921;28;20593;-88
2023/01/28 14:16:39;;;;;;;7.90;3.05;;;;;;;;;;5082318;28;20111;-87
2023/01/28 14:19:10;;;;;;;6.82;2.78;;;;;;;;;;5076787;28;20062;-87
2023/01/28 14:21:37;;;;;;;7.07;3.28;;;;;;;;;;5085472;28;20143;-87
2023/01/28 14:24:04;;;;;;;6.82;3.20;;;;;;;;;;5085902;28;20081;-87
2023/01/28 14:26:38;;;;;;;7.70;3.63;;;;;;;;;;5077321;28;20059;-87
2023/01/28 14:29:25;;;;;;;7.32;3.45;;;;;;;;;;5076681;28;20053;-87
2023/01/28 14:31:52;;;;;;;7.28;3.30;;;;;;;;;;5079926;28;20064;-87
2023/01/28 14:34:45;;;;;;;6.82;3.00;;;;;;;;;;5080737;28;20122;-87
2023/01/28 14:37:13;;;;;;;7.75;3.63;;;;;;;;;;5070744;28;20057;-87
2023/01/28 14:39:44;;;;;;;6.45;2.90;;;;;;;;;;5073508;28;20052;-87
2023/01/28 14:42:13;;;;;;;8.18;3.05;;;;;;;;;;5078794;28;20135;-87
2023/01/28 14:44:40;;;;;;;11.65;3.42;;;;;;;;;;5080024;28;20138;-87
2023/01/28 14:47:32;;;;;;;8.98;3.80;;;;;;;;;;5074392;28;21553;-87
2023/01/28 14:50:21;;;;;;;8.55;3.30;;;;;;;;;;5084865;28;20080;-87
2023/01/28 14:53:06;;;;;;;9.80;3.28;;;;;;;;;;5078579;28;20060;-87
2023/01/28 14:55:32;;;;;;;8.68;3.70;;;;;;;;;;5080777;28;20096;-87
2023/01/28 14:58:02;;;;;;;8.70;3.13;;;;;;;;;;5080635;28;20118;-87
2023/01/28 15:00:29;;;;;;;;;;;;;;;;;;5085937;28;20049;-88
2023/01/28 15:02:56;;;;;;;7.82;3.33;;;;;;;;;;5083838;28;44355;-87
2023/01/28 15:05:25;;;;;;;8.82;3.58;;;;;;;;;;5081055;28;20056;-88
2023/01/28 15:07:52;;;;;;;7.97;3.67;;;;;;;;;;5073551;28;20059;-87
2023/01/28 15:10:36;;;;;;;7.05;3.30;;;;;;;;;;5074599;28;20482;-88
2023/01/28 15:13:04;;;;;;;14.05;3.72;;;;;;;;;;5078562;28;20053;-87
2023/01/28 15:15:34;;;;;;;7.93;3.22;;;;;;;;;;5075960;28;20084;-87
2023/01/28 15:18:12;;;;;;;7.33;3.47;;;;;;;;;;5070671;28;20541;-87
2023/01/28 15:20:42;;;;;;;8.80;3.55;;;;;;;;;;5073742;28;20060;-87
2023/01/28 15:23:13;;;;;;;8.02;4.00;;;;;;;;;;5081822;28;20065;-87